sensor_id;sensor_type;location;lat;lon;timestamp;temperature;humidity
65864;SHT30;52639;51.180;20.460;2023-05-07T00:01:11;4.66;98.62
65864;SHT30;52639;51.180;20.460;2023-05-07T00:05:13;4.60;98.82
65864;SHT30;52639;51.180;20.460;2023-05-07T00:09:16;4.60;98.68
65864;SHT30;52639;51.180;20.460;2023-05-07T00:13:19;4.54;98.54
65864;SHT30;52639;51.180;20.460;2023-05-07T00:17:23;4.49;98.57
65864;SHT30;52639;51.180;20.460;2023-05-07T00:21:26;4.46;98.92
65864;SHT30;52639;51.180;20.460;2023-05-07T00:25:29;4.38;98.82
65864;SHT30;52639;51.180;20.460;2023-05-07T00:29:32;4.39;99.00
65864;SHT30;52639;51.180;20.460;2023-05-07T00:33:37;4.38;98.87
65864;SHT30;52639;51.180;20.460;2023-05-07T00:37:40;4.33;98.89
65864;SHT30;52639;51.180;20.460;2023-05-07T00:41:43;4.29;98.88
65864;SHT30;52639;51.180;20.460;2023-05-07T00:45:47;4.33;99.10
65864;SHT30;52639;51.180;20.460;2023-05-07T00:49:52;4.33;98.78
65864;SHT30;52639;51.180;20.460;2023-05-07T00:53:55;4.30;98.88
65864;SHT30;52639;51.180;20.460;2023-05-07T00:57:59;4.28;98.82
65864;SHT30;52639;51.180;20.460;2023-05-07T01:02:02;4.28;98.69
65864;SHT30;52639;51.180;20.460;2023-05-07T01:06:07;4.29;98.68
65864;SHT30;52639;51.180;20.460;2023-05-07T01:10:11;4.28;98.59
65864;SHT30;52639;51.180;20.460;2023-05-07T01:14:14;4.26;98.65
65864;SHT30;52639;51.180;20.460;2023-05-07T01:18:17;4.28;98.61
65864;SHT30;52639;51.180;20.460;2023-05-07T01:22:29;4.25;98.48
65864;SHT30;52639;51.180;20.460;2023-05-07T01:26:33;4.25;98.67
65864;SHT30;52639;51.180;20.460;2023-05-07T01:30:36;4.20;98.52
65864;SHT30;52639;51.180;20.460;2023-05-07T01:34:39;4.19;98.56
65864;SHT30;52639;51.180;20.460;2023-05-07T01:38:44;4.22;98.43
65864;SHT30;52639;51.180;20.460;2023-05-07T01:42:47;4.22;98.32
65864;SHT30;52639;51.180;20.460;2023-05-07T01:46:50;4.22;98.33
65864;SHT30;52639;51.180;20.460;2023-05-07T01:50:54;4.18;98.56
65864;SHT30;52639;51.180;20.460;2023-05-07T01:54:59;4.19;98.43
65864;SHT30;52639;51.180;20.460;2023-05-07T01:59:01;4.19;98.50
65864;SHT30;52639;51.180;20.460;2023-05-07T02:03:04;4.15;98.22
65864;SHT30;52639;51.180;20.460;2023-05-07T02:07:07;4.13;98.35
65864;SHT30;52639;51.180;20.460;2023-05-07T02:11:11;4.13;98.27
65864;SHT30;52639;51.180;20.460;2023-05-07T02:15:14;4.18;97.84
65864;SHT30;52639;51.180;20.460;2023-05-07T02:19:17;4.12;98.23
65864;SHT30;52639;51.180;20.460;2023-05-07T02:23:23;4.15;98.37
65864;SHT30;52639;51.180;20.460;2023-05-07T02:27:27;4.15;98.68
65864;SHT30;52639;51.180;20.460;2023-05-07T02:31:30;4.15;98.69
65864;SHT30;52639;51.180;20.460;2023-05-07T02:35:35;4.15;98.70
65864;SHT30;52639;51.180;20.460;2023-05-07T02:39:37;4.15;98.64
65864;SHT30;52639;51.180;20.460;2023-05-07T02:43:42;4.13;98.60
65864;SHT30;52639;51.180;20.460;2023-05-07T02:47:45;4.16;98.45
65864;SHT30;52639;51.180;20.460;2023-05-07T02:51:47;4.12;97.98
65864;SHT30;52639;51.180;20.460;2023-05-07T02:55:51;4.16;97.87
65864;SHT30;52639;51.180;20.460;2023-05-07T02:59:57;4.15;97.69
65864;SHT30;52639;51.180;20.460;2023-05-07T03:04:00;4.15;97.72
65864;SHT30;52639;51.180;20.460;2023-05-07T03:08:03;4.13;98.21
65864;SHT30;52639;51.180;20.460;2023-05-07T03:12:06;4.13;98.07
65864;SHT30;52639;51.180;20.460;2023-05-07T03:16:11;4.10;98.26
65864;SHT30;52639;51.180;20.460;2023-05-07T03:20:14;4.12;98.45
65864;SHT30;52639;51.180;20.460;2023-05-07T03:24:17;4.13;98.37
65864;SHT30;52639;51.180;20.460;2023-05-07T03:28:20;4.18;98.15
65864;SHT30;52639;51.180;20.460;2023-05-07T03:32:24;4.19;97.59
65864;SHT30;52639;51.180;20.460;2023-05-07T03:36:27;4.19;97.58
65864;SHT30;52639;51.180;20.460;2023-05-07T03:40:30;4.25;97.46
65864;SHT30;52639;51.180;20.460;2023-05-07T03:44:33;4.22;97.57
65864;SHT30;52639;51.180;20.460;2023-05-07T03:48:38;4.23;97.57
65864;SHT30;52639;51.180;20.460;2023-05-07T03:52:41;4.23;97.76
65864;SHT30;52639;51.180;20.460;2023-05-07T03:56:44;4.28;97.75
65864;SHT30;52639;51.180;20.460;2023-05-07T04:00:47;4.30;97.59
65864;SHT30;52639;51.180;20.460;2023-05-07T04:04:52;4.30;97.47
65864;SHT30;52639;51.180;20.460;2023-05-07T04:08:55;4.32;97.54
65864;SHT30;52639;51.180;20.460;2023-05-07T04:12:58;4.39;97.19
65864;SHT30;52639;51.180;20.460;2023-05-07T04:17:01;4.33;97.47
65864;SHT30;52639;51.180;20.460;2023-05-07T04:21:05;4.40;97.24
65864;SHT30;52639;51.180;20.460;2023-05-07T04:25:09;4.40;97.39
65864;SHT30;52639;51.180;20.460;2023-05-07T04:29:12;4.43;97.45
65864;SHT30;52639;51.180;20.460;2023-05-07T04:33:15;4.48;97.50
65864;SHT30;52639;51.180;20.460;2023-05-07T04:37:20;4.48;97.14
65864;SHT30;52639;51.180;20.460;2023-05-07T04:41:22;4.48;97.12
65864;SHT30;52639;51.180;20.460;2023-05-07T04:45:26;4.50;97.37
65864;SHT30;52639;51.180;20.460;2023-05-07T04:49:28;4.54;97.42
65864;SHT30;52639;51.180;20.460;2023-05-07T04:53:33;4.48;97.17
65864;SHT30;52639;51.180;20.460;2023-05-07T04:57:36;4.52;97.35
65864;SHT30;52639;51.180;20.460;2023-05-07T05:01:39;4.59;97.10
65864;SHT30;52639;51.180;20.460;2023-05-07T05:05:43;4.57;97.00
65864;SHT30;52639;51.180;20.460;2023-05-07T05:09:50;4.57;96.87
65864;SHT30;52639;51.180;20.460;2023-05-07T05:13:52;4.59;97.10
65864;SHT30;52639;51.180;20.460;2023-05-07T05:17:55;4.67;97.04
65864;SHT30;52639;51.180;20.460;2023-05-07T05:21:58;4.69;96.81
65864;SHT30;52639;51.180;20.460;2023-05-07T05:26:03;4.73;96.35
65864;SHT30;52639;51.180;20.460;2023-05-07T05:30:07;4.69;96.49
65864;SHT30;52639;51.180;20.460;2023-05-07T05:34:10;4.69;96.84
65864;SHT30;52639;51.180;20.460;2023-05-07T05:38:13;4.69;96.77
65864;SHT30;52639;51.180;20.460;2023-05-07T05:42:18;4.72;96.79
65864;SHT30;52639;51.180;20.460;2023-05-07T05:46:21;4.72;96.80
65864;SHT30;52639;51.180;20.460;2023-05-07T05:50:24;4.79;96.85
65864;SHT30;52639;51.180;20.460;2023-05-07T05:54:27;4.77;96.34
65864;SHT30;52639;51.180;20.460;2023-05-07T05:58:31;4.77;96.21
65864;SHT30;52639;51.180;20.460;2023-05-07T06:02:34;4.76;96.12
65864;SHT30;52639;51.180;20.460;2023-05-07T06:06:37;4.79;96.50
65864;SHT30;52639;51.180;20.460;2023-05-07T06:10:40;4.87;96.15
65864;SHT30;52639;51.180;20.460;2023-05-07T06:14:44;5.00;95.63
65864;SHT30;52639;51.180;20.460;2023-05-07T06:18:47;5.00;95.66
65864;SHT30;52639;51.180;20.460;2023-05-07T06:22:50;4.88;95.90
65864;SHT30;52639;51.180;20.460;2023-05-07T06:26:53;4.83;96.14
65864;SHT30;52639;51.180;20.460;2023-05-07T06:31:11;4.80;96.26
65864;SHT30;52639;51.180;20.460;2023-05-07T06:35:13;4.79;96.57
65864;SHT30;52639;51.180;20.460;2023-05-07T06:39:16;4.70;96.59
65864;SHT30;52639;51.180;20.460;2023-05-07T06:43:19;4.69;96.99
65864;SHT30;52639;51.180;20.460;2023-05-07T06:47:24;4.79;96.72
65864;SHT30;52639;51.180;20.460;2023-05-07T06:51:27;4.73;96.33
65864;SHT30;52639;51.180;20.460;2023-05-07T06:55:30;4.83;96.26
65864;SHT30;52639;51.180;20.460;2023-05-07T06:59:33;4.84;95.93
65864;SHT30;52639;51.180;20.460;2023-05-07T07:03:38;4.79;96.09
65864;SHT30;52639;51.180;20.460;2023-05-07T07:07:44;4.83;96.86
65864;SHT30;52639;51.180;20.460;2023-05-07T07:11:53;4.87;96.20
65864;SHT30;52639;51.180;20.460;2023-05-07T07:15:57;4.93;95.95
65864;SHT30;52639;51.180;20.460;2023-05-07T07:20:02;4.97;95.61
65864;SHT30;52639;51.180;20.460;2023-05-07T07:24:06;5.18;95.40
65864;SHT30;52639;51.180;20.460;2023-05-07T07:28:11;5.03;94.83
65864;SHT30;52639;51.180;20.460;2023-05-07T07:32:14;5.05;95.00
65864;SHT30;52639;51.180;20.460;2023-05-07T07:36:18;5.05;95.30
65864;SHT30;52639;51.180;20.460;2023-05-07T07:40:22;5.10;95.52
65864;SHT30;52639;51.180;20.460;2023-05-07T07:44:43;5.11;94.66
65864;SHT30;52639;51.180;20.460;2023-05-07T07:48:49;5.03;95.57
65864;SHT30;52639;51.180;20.460;2023-05-07T07:52:54;5.10;95.66
65864;SHT30;52639;51.180;20.460;2023-05-07T07:56:57;5.15;95.46
65864;SHT30;52639;51.180;20.460;2023-05-07T08:01:00;5.10;95.43
65864;SHT30;52639;51.180;20.460;2023-05-07T08:05:04;5.11;95.48
65864;SHT30;52639;51.180;20.460;2023-05-07T08:09:13;5.21;94.96
65864;SHT30;52639;51.180;20.460;2023-05-07T08:13:20;5.31;94.83
65864;SHT30;52639;51.180;20.460;2023-05-07T08:17:24;5.25;94.41
65864;SHT30;52639;51.180;20.460;2023-05-07T08:21:30;5.20;94.70
65864;SHT30;52639;51.180;20.460;2023-05-07T08:25:35;5.21;94.68
65864;SHT30;52639;51.180;20.460;2023-05-07T08:29:39;5.13;94.81
65864;SHT30;52639;51.180;20.460;2023-05-07T08:33:43;5.10;95.10
65864;SHT30;52639;51.180;20.460;2023-05-07T08:37:46;5.21;95.22
65864;SHT30;52639;51.180;20.460;2023-05-07T08:41:55;5.17;94.71
65864;SHT30;52639;51.180;20.460;2023-05-07T08:46:04;5.15;94.72
65864;SHT30;52639;51.180;20.460;2023-05-07T08:50:08;5.24;94.72
65864;SHT30;52639;51.180;20.460;2023-05-07T08:54:11;5.21;94.95
65864;SHT30;52639;51.180;20.460;2023-05-07T08:58:16;5.32;94.57
65864;SHT30;52639;51.180;20.460;2023-05-07T09:02:19;5.31;94.75
65864;SHT30;52639;51.180;20.460;2023-05-07T09:06:22;5.37;94.28
65864;SHT30;52639;51.180;20.460;2023-05-07T09:10:26;5.39;94.16
65864;SHT30;52639;51.180;20.460;2023-05-07T09:14:30;5.32;94.44
65864;SHT30;52639;51.180;20.460;2023-05-07T09:18:34;5.38;94.87
65864;SHT30;52639;51.180;20.460;2023-05-07T09:22:37;5.48;94.38
65864;SHT30;52639;51.180;20.460;2023-05-07T09:26:41;5.48;94.42
65864;SHT30;52639;51.180;20.460;2023-05-07T09:30:45;5.54;94.55
65864;SHT30;52639;51.180;20.460;2023-05-07T09:34:48;5.54;94.32
65864;SHT30;52639;51.180;20.460;2023-05-07T09:38:51;5.42;95.03
65864;SHT30;52639;51.180;20.460;2023-05-07T09:42:55;5.45;95.14
65864;SHT30;52639;51.180;20.460;2023-05-07T09:47:00;5.42;94.97
65864;SHT30;52639;51.180;20.460;2023-05-07T09:51:09;5.34;94.61
65864;SHT30;52639;51.180;20.460;2023-05-07T09:55:15;5.42;94.95
65864;SHT30;52639;51.180;20.460;2023-05-07T09:59:21;5.41;94.52
65864;SHT30;52639;51.180;20.460;2023-05-07T10:03:27;5.47;94.58
65864;SHT30;52639;51.180;20.460;2023-05-07T10:07:33;5.41;94.53
65864;SHT30;52639;51.180;20.460;2023-05-07T10:11:37;5.71;93.87
65864;SHT30;52639;51.180;20.460;2023-05-07T10:15:41;6.05;92.85
65864;SHT30;52639;51.180;20.460;2023-05-07T10:19:46;6.10;92.30
65864;SHT30;52639;51.180;20.460;2023-05-07T10:23:50;5.95;92.57
65864;SHT30;52639;51.180;20.460;2023-05-07T10:27:53;5.91;92.54
65864;SHT30;52639;51.180;20.460;2023-05-07T10:32:02;5.65;92.61
65864;SHT30;52639;51.180;20.460;2023-05-07T10:36:09;5.56;93.36
65864;SHT30;52639;51.180;20.460;2023-05-07T10:40:13;5.69;93.10
65864;SHT30;52639;51.180;20.460;2023-05-07T10:44:25;5.63;92.72
65864;SHT30;52639;51.180;20.460;2023-05-07T10:48:29;5.54;93.32
65864;SHT30;52639;51.180;20.460;2023-05-07T10:52:35;5.55;93.39
65864;SHT30;52639;51.180;20.460;2023-05-07T10:56:40;5.55;93.29
65864;SHT30;52639;51.180;20.460;2023-05-07T11:00:44;5.59;93.29
65864;SHT30;52639;51.180;20.460;2023-05-07T11:05:18;5.69;92.70
65864;SHT30;52639;51.180;20.460;2023-05-07T11:09:23;5.71;92.73
65864;SHT30;52639;51.180;20.460;2023-05-07T11:13:42;5.65;92.70
65864;SHT30;52639;51.180;20.460;2023-05-07T11:17:53;5.72;92.38
65864;SHT30;52639;51.180;20.460;2023-05-07T11:21:56;5.72;92.61
65864;SHT30;52639;51.180;20.460;2023-05-07T11:26:05;5.79;91.90
65864;SHT30;52639;51.180;20.460;2023-05-07T11:30:17;5.75;92.41
65864;SHT30;52639;51.180;20.460;2023-05-07T11:34:22;5.82;92.00
65864;SHT30;52639;51.180;20.460;2023-05-07T11:38:25;5.99;92.14
65864;SHT30;52639;51.180;20.460;2023-05-07T11:42:31;6.05;91.70
65864;SHT30;52639;51.180;20.460;2023-05-07T11:46:34;6.03;90.98
65864;SHT30;52639;51.180;20.460;2023-05-07T11:50:50;6.13;91.13
65864;SHT30;52639;51.180;20.460;2023-05-07T11:54:55;6.46;90.48
65864;SHT30;52639;51.180;20.460;2023-05-07T11:59:00;6.57;89.70
65864;SHT30;52639;51.180;20.460;2023-05-07T12:03:04;6.67;89.44
65864;SHT30;52639;51.180;20.460;2023-05-07T12:07:11;6.77;89.40
65864;SHT30;52639;51.180;20.460;2023-05-07T12:11:16;6.68;89.09
65864;SHT30;52639;51.180;20.460;2023-05-07T12:15:25;6.43;89.41
65864;SHT30;52639;51.180;20.460;2023-05-07T12:19:34;6.56;89.48
65864;SHT30;52639;51.180;20.460;2023-05-07T12:23:39;7.38;88.59
65864;SHT30;52639;51.180;20.460;2023-05-07T12:27:42;7.56;86.98
65864;SHT30;52639;51.180;20.460;2023-05-07T12:31:47;7.39;87.68
65864;SHT30;52639;51.180;20.460;2023-05-07T12:35:50;7.15;88.27
65864;SHT30;52639;51.180;20.460;2023-05-07T12:40:05;7.05;88.11
65864;SHT30;52639;51.180;20.460;2023-05-07T12:44:13;7.51;87.55
65864;SHT30;52639;51.180;20.460;2023-05-07T12:48:22;7.73;86.00
65864;SHT30;52639;51.180;20.460;2023-05-07T12:52:30;7.48;85.96
65864;SHT30;52639;51.180;20.460;2023-05-07T12:56:36;7.29;86.25
65864;SHT30;52639;51.180;20.460;2023-05-07T13:00:39;7.42;86.20
65864;SHT30;52639;51.180;20.460;2023-05-07T13:04:43;8.23;84.79
65864;SHT30;52639;51.180;20.460;2023-05-07T13:08:46;8.55;82.46
65864;SHT30;52639;51.180;20.460;2023-05-07T13:12:49;8.33;82.85
65864;SHT30;52639;51.180;20.460;2023-05-07T13:16:53;7.85;84.63
65864;SHT30;52639;51.180;20.460;2023-05-07T13:20:58;7.38;85.75
65864;SHT30;52639;51.180;20.460;2023-05-07T13:25:29;7.11;86.21
65864;SHT30;52639;51.180;20.460;2023-05-07T13:30:25;7.73;85.11
65864;SHT30;52639;51.180;20.460;2023-05-07T13:34:28;8.10;84.21
65864;SHT30;52639;51.180;20.460;2023-05-07T13:38:33;7.90;84.34
65864;SHT30;52639;51.180;20.460;2023-05-07T13:42:37;7.79;84.59
65864;SHT30;52639;51.180;20.460;2023-05-07T13:46:40;7.58;84.68
65864;SHT30;52639;51.180;20.460;2023-05-07T13:50:44;7.49;85.07
65864;SHT30;52639;51.180;20.460;2023-05-07T13:54:49;7.38;85.05
65864;SHT30;52639;51.180;20.460;2023-05-07T13:58:57;7.33;85.09
65864;SHT30;52639;51.180;20.460;2023-05-07T14:03:03;7.29;84.80
65864;SHT30;52639;51.180;20.460;2023-05-07T14:07:15;7.26;85.03
65864;SHT30;52639;51.180;20.460;2023-05-07T14:11:38;7.36;84.80
65864;SHT30;52639;51.180;20.460;2023-05-07T14:15:47;7.22;84.67
65864;SHT30;52639;51.180;20.460;2023-05-07T14:19:52;7.15;84.72
65864;SHT30;52639;51.180;20.460;2023-05-07T14:24:01;7.36;84.27
65864;SHT30;52639;51.180;20.460;2023-05-07T14:28:06;7.51;84.15
65864;SHT30;52639;51.180;20.460;2023-05-07T14:32:09;7.31;84.56
65864;SHT30;52639;51.180;20.460;2023-05-07T14:36:14;7.18;84.77
65864;SHT30;52639;51.180;20.460;2023-05-07T14:40:22;7.09;84.80
65864;SHT30;52639;51.180;20.460;2023-05-07T14:44:27;7.08;85.07
65864;SHT30;52639;51.180;20.460;2023-05-07T14:48:30;7.05;85.56
65864;SHT30;52639;51.180;20.460;2023-05-07T14:52:34;7.07;84.88
65864;SHT30;52639;51.180;20.460;2023-05-07T14:56:37;7.32;84.59
65864;SHT30;52639;51.180;20.460;2023-05-07T15:00:42;7.33;83.91
65864;SHT30;52639;51.180;20.460;2023-05-07T15:04:45;7.23;83.77
65864;SHT30;52639;51.180;20.460;2023-05-07T15:08:48;7.15;83.67
65864;SHT30;52639;51.180;20.460;2023-05-07T15:12:52;7.14;83.56
65864;SHT30;52639;51.180;20.460;2023-05-07T15:16:57;7.31;83.32
65864;SHT30;52639;51.180;20.460;2023-05-07T15:21:00;7.41;82.72
65864;SHT30;52639;51.180;20.460;2023-05-07T15:25:03;7.48;82.68
65864;SHT30;52639;51.180;20.460;2023-05-07T15:29:07;7.63;82.11
65864;SHT30;52639;51.180;20.460;2023-05-07T15:33:13;7.66;82.07
65864;SHT30;52639;51.180;20.460;2023-05-07T15:37:16;7.62;82.48
65864;SHT30;52639;51.180;20.460;2023-05-07T15:41:22;7.31;82.98
65864;SHT30;52639;51.180;20.460;2023-05-07T15:45:27;7.07;83.36
65864;SHT30;52639;51.180;20.460;2023-05-07T15:49:32;6.97;83.44
65864;SHT30;52639;51.180;20.460;2023-05-07T15:53:35;7.08;83.43
65864;SHT30;52639;51.180;20.460;2023-05-07T15:57:38;7.21;83.22
65864;SHT30;52639;51.180;20.460;2023-05-07T16:01:43;7.12;83.08
65864;SHT30;52639;51.180;20.460;2023-05-07T16:05:55;7.04;83.16
65864;SHT30;52639;51.180;20.460;2023-05-07T16:10:01;6.97;83.30
65864;SHT30;52639;51.180;20.460;2023-05-07T16:14:05;7.00;83.27
65864;SHT30;52639;51.180;20.460;2023-05-07T16:18:08;7.00;82.91
65864;SHT30;52639;51.180;20.460;2023-05-07T16:22:17;7.02;82.50
65864;SHT30;52639;51.180;20.460;2023-05-07T16:26:21;7.02;82.63
65864;SHT30;52639;51.180;20.460;2023-05-07T16:30:28;6.94;83.13
65864;SHT30;52639;51.180;20.460;2023-05-07T16:34:33;6.90;82.78
65864;SHT30;52639;51.180;20.460;2023-05-07T16:38:38;6.83;82.80
65864;SHT30;52639;51.180;20.460;2023-05-07T16:42:43;6.73;83.16
65864;SHT30;52639;51.180;20.460;2023-05-07T16:46:47;6.68;83.25
65864;SHT30;52639;51.180;20.460;2023-05-07T16:50:52;6.66;83.17
65864;SHT30;52639;51.180;20.460;2023-05-07T16:55:04;6.66;83.00
65864;SHT30;52639;51.180;20.460;2023-05-07T16:59:09;6.67;83.16
65864;SHT30;52639;51.180;20.460;2023-05-07T17:03:13;6.58;83.00
65864;SHT30;52639;51.180;20.460;2023-05-07T17:07:17;6.54;83.30
65864;SHT30;52639;51.180;20.460;2023-05-07T17:11:21;6.48;83.23
65864;SHT30;52639;51.180;20.460;2023-05-07T17:15:26;6.44;83.38
65864;SHT30;52639;51.180;20.460;2023-05-07T17:19:40;6.40;83.32
65864;SHT30;52639;51.180;20.460;2023-05-07T17:23:48;6.37;83.54
65864;SHT30;52639;51.180;20.460;2023-05-07T17:27:57;6.37;83.43
65864;SHT30;52639;51.180;20.460;2023-05-07T17:32:01;6.32;83.49
65864;SHT30;52639;51.180;20.460;2023-05-07T17:36:05;6.10;83.60
65864;SHT30;52639;51.180;20.460;2023-05-07T17:40:11;5.83;83.70
65864;SHT30;52639;51.180;20.460;2023-05-07T17:44:21;5.56;84.49
65864;SHT30;52639;51.180;20.460;2023-05-07T17:48:24;5.24;84.65
65864;SHT30;52639;51.180;20.460;2023-05-07T17:52:30;5.04;84.94
65864;SHT30;52639;51.180;20.460;2023-05-07T17:56:33;5.04;85.34
65864;SHT30;52639;51.180;20.460;2023-05-07T18:00:42;4.84;84.78
65864;SHT30;52639;51.180;20.460;2023-05-07T18:04:51;4.62;85.32
65864;SHT30;52639;51.180;20.460;2023-05-07T18:08:54;4.48;85.27
65864;SHT30;52639;51.180;20.460;2023-05-07T18:12:57;4.20;85.18
65864;SHT30;52639;51.180;20.460;2023-05-07T18:17:02;3.95;85.21
65864;SHT30;52639;51.180;20.460;2023-05-07T18:21:06;3.73;85.60
65864;SHT30;52639;51.180;20.460;2023-05-07T18:25:16;3.51;85.26
65864;SHT30;52639;51.180;20.460;2023-05-07T18:29:19;3.03;85.93
65864;SHT30;52639;51.180;20.460;2023-05-07T18:33:27;2.62;86.40
65864;SHT30;52639;51.180;20.460;2023-05-07T18:37:31;2.20;87.00
65864;SHT30;52639;51.180;20.460;2023-05-07T18:41:49;2.01;87.51
65864;SHT30;52639;51.180;20.460;2023-05-07T18:45:59;1.91;87.13
65864;SHT30;52639;51.180;20.460;2023-05-07T18:50:12;1.70;87.37
65864;SHT30;52639;51.180;20.460;2023-05-07T18:54:17;1.53;87.80
65864;SHT30;52639;51.180;20.460;2023-05-07T18:58:23;1.46;87.54
65864;SHT30;52639;51.180;20.460;2023-05-07T19:02:48;1.35;87.56
65864;SHT30;52639;51.180;20.460;2023-05-07T19:06:59;1.19;87.36
65864;SHT30;52639;51.180;20.460;2023-05-07T19:11:03;1.05;87.29
65864;SHT30;52639;51.180;20.460;2023-05-07T19:15:12;1.05;88.14
65864;SHT30;52639;51.180;20.460;2023-05-07T19:19:15;1.12;87.97
65864;SHT30;52639;51.180;20.460;2023-05-07T19:23:20;1.12;87.39
65864;SHT30;52639;51.180;20.460;2023-05-07T19:27:23;1.05;87.55
65864;SHT30;52639;51.180;20.460;2023-05-07T19:31:27;1.02;87.55
65864;SHT30;52639;51.180;20.460;2023-05-07T19:35:31;0.93;87.29
65864;SHT30;52639;51.180;20.460;2023-05-07T19:39:38;0.68;87.15
65864;SHT30;52639;51.180;20.460;2023-05-07T19:43:43;0.47;87.73
65864;SHT30;52639;51.180;20.460;2023-05-07T19:47:46;0.38;87.51
65864;SHT30;52639;51.180;20.460;2023-05-07T19:51:49;0.27;87.92
65864;SHT30;52639;51.180;20.460;2023-05-07T19:56:01;0.14;87.51
65864;SHT30;52639;51.180;20.460;2023-05-07T20:00:07;0.00;88.13
65864;SHT30;52639;51.180;20.460;2023-05-07T20:04:12;-0.18;88.05
65864;SHT30;52639;51.180;20.460;2023-05-07T20:08:15;-0.30;88.05
65864;SHT30;52639;51.180;20.460;2023-05-07T20:12:20;-0.40;88.00
65864;SHT30;52639;51.180;20.460;2023-05-07T20:16:24;-0.50;88.92
65864;SHT30;52639;51.180;20.460;2023-05-07T20:20:27;-0.57;88.42
65864;SHT30;52639;51.180;20.460;2023-05-07T20:24:30;-0.62;88.43
65864;SHT30;52639;51.180;20.460;2023-05-07T20:28:34;-0.78;88.02
65864;SHT30;52639;51.180;20.460;2023-05-07T20:32:37;-0.87;88.80
65864;SHT30;52639;51.180;20.460;2023-05-07T20:36:40;-0.99;88.14
65864;SHT30;52639;51.180;20.460;2023-05-07T20:40:43;-0.96;88.69
65864;SHT30;52639;51.180;20.460;2023-05-07T20:44:47;-0.95;88.64
65864;SHT30;52639;51.180;20.460;2023-05-07T20:48:51;-1.03;88.60
65864;SHT30;52639;51.180;20.460;2023-05-07T20:52:54;-0.88;88.58
65864;SHT30;52639;51.180;20.460;2023-05-07T20:56:56;-0.88;88.20
65864;SHT30;52639;51.180;20.460;2023-05-07T21:01:03;-0.98;87.59
65864;SHT30;52639;51.180;20.460;2023-05-07T21:05:06;-1.20;87.98
65864;SHT30;52639;51.180;20.460;2023-05-07T21:09:09;-1.20;89.32
65864;SHT30;52639;51.180;20.460;2023-05-07T21:13:13;-1.23;88.25
65864;SHT30;52639;51.180;20.460;2023-05-07T21:17:17;-1.38;88.41
65864;SHT30;52639;51.180;20.460;2023-05-07T21:21:20;-1.43;88.38
65864;SHT30;52639;51.180;20.460;2023-05-07T21:25:23;-1.43;89.31
65864;SHT30;52639;51.180;20.460;2023-05-07T21:29:26;-1.52;88.74
65864;SHT30;52639;51.180;20.460;2023-05-07T21:33:30;-1.63;88.44
65864;SHT30;52639;51.180;20.460;2023-05-07T21:37:33;-1.66;88.77
65864;SHT30;52639;51.180;20.460;2023-05-07T21:41:36;-1.73;88.96
65864;SHT30;52639;51.180;20.460;2023-05-07T21:45:38;-1.62;88.88
65864;SHT30;52639;51.180;20.460;2023-05-07T21:49:43;-1.70;88.22
65864;SHT30;52639;51.180;20.460;2023-05-07T21:53:46;-1.74;88.61
65864;SHT30;52639;51.180;20.460;2023-05-07T21:57:49;-1.76;88.98
65864;SHT30;52639;51.180;20.460;2023-05-07T22:01:52;-1.73;89.14
65864;SHT30;52639;51.180;20.460;2023-05-07T22:05:56;-1.87;88.44
65864;SHT30;52639;51.180;20.460;2023-05-07T22:09:59;-1.93;88.71
65864;SHT30;52639;51.180;20.460;2023-05-07T22:14:02;-2.05;88.72
65864;SHT30;52639;51.180;20.460;2023-05-07T22:18:05;-2.00;89.57
65864;SHT30;52639;51.180;20.460;2023-05-07T22:22:10;-2.10;89.12
65864;SHT30;52639;51.180;20.460;2023-05-07T22:26:13;-2.05;89.30
65864;SHT30;52639;51.180;20.460;2023-05-07T22:30:16;-1.97;89.10
65864;SHT30;52639;51.180;20.460;2023-05-07T22:34:19;-2.01;88.96
65864;SHT30;52639;51.180;20.460;2023-05-07T22:38:24;-2.07;88.83
65864;SHT30;52639;51.180;20.460;2023-05-07T22:42:26;-2.14;88.81
65864;SHT30;52639;51.180;20.460;2023-05-07T22:46:30;-2.18;88.63
65864;SHT30;52639;51.180;20.460;2023-05-07T22:50:35;-2.20;89.04
65864;SHT30;52639;51.180;20.460;2023-05-07T22:54:40;-2.14;88.72
65864;SHT30;52639;51.180;20.460;2023-05-07T22:58:43;-2.18;88.55
65864;SHT30;52639;51.180;20.460;2023-05-07T23:02:47;-2.31;88.63
65864;SHT30;52639;51.180;20.460;2023-05-07T23:06:50;-2.28;88.96
65864;SHT30;52639;51.180;20.460;2023-05-07T23:10:55;-2.30;88.65
65864;SHT30;52639;51.180;20.460;2023-05-07T23:14:58;-2.42;90.31
65864;SHT30;52639;51.180;20.460;2023-05-07T23:19:01;-2.05;88.84
65864;SHT30;52639;51.180;20.460;2023-05-07T23:23:04;-2.18;88.39
65864;SHT30;52639;51.180;20.460;2023-05-07T23:27:08;-2.27;88.55
65864;SHT30;52639;51.180;20.460;2023-05-07T23:31:11;-2.34;88.37
65864;SHT30;52639;51.180;20.460;2023-05-07T23:35:14;-2.48;88.52
65864;SHT30;52639;51.180;20.460;2023-05-07T23:39:17;-2.63;88.74
65864;SHT30;52639;51.180;20.460;2023-05-07T23:43:22;-2.63;88.68
65864;SHT30;52639;51.180;20.460;2023-05-07T23:47:24;-2.59;89.22
65864;SHT30;52639;51.180;20.460;2023-05-07T23:51:27;-2.58;89.08
65864;SHT30;52639;51.180;20.460;2023-05-07T23:55:31;-2.58;88.81
65864;SHT30;52639;51.180;20.460;2023-05-07T23:59:35;-2.55;88.78
